Tuesday, June 19, 2018, 3:50 PM EDT
Back to Local

KHYA, Hyannis Barnstable Boardmn

Location: West Yarmouth, MA, United States Lat: 41.667
Local Time: 3:50 PM EDT (19:50 GMT) Lon: -70.267
Time Zone: US/Eastern Elev: 52 ft

Show me the last for .
Show Decoded

2018-06-19 14:56 METAR KHYA 191856Z 36012G18KT 10SM CLR 26/14 A2974 RMK AO2 SLP070 T02560144 =
2018-06-19 13:56 METAR KHYA 191756Z 36013G19KT 10SM CLR 26/15 A2973 RMK AO2 SLP068 T02560150
                 10261 20222 53003 =
2018-06-19 12:56 METAR KHYA 191656Z 01012G21KT 10SM CLR 26/16 A2973 RMK AO2 SLP067 T02560156 =
2018-06-19 11:56 METAR KHYA 191556Z 35012G19KT 10SM CLR 25/16 A2972 RMK AO2 SLP065 T02500161 =
2018-06-19 10:56 METAR KHYA 191456Z 35011G20KT 10SM CLR 24/16 A2972 RMK AO2 SLP065 T02440161
                 51009 =
2018-06-19 09:56 METAR KHYA 191356Z 33013G22KT 10SM SCT030 23/17 A2971 RMK AO2 SLP062 T02330167 =
2018-06-19 09:52 METAR KHYA 191352Z 34010KT 10SM SCT030 23/17 A2971 RMK AO2 =
2018-06-19 08:56 METAR KHYA 191256Z 35013G21KT 10SM OVC025 22/17 A2969 RMK AO2 SLP055 T02220172 =
2018-06-19 07:56 METAR KHYA 191156Z 34011G18KT 9SM FEW060 23/21 A2967 RMK AO2 RAB04E17 SLP047
                 P0000 60002 70007 T02280211 10233 20189 53013 =
2018-06-19 06:56 METAR KHYA 191056Z 31009G18KT 10SM BKN120 23/21 A2965 RMK AO2 RAB02E12 SLP040
                 P0000 T02330211 =
2018-06-19 05:56 METAR KHYA 190956Z 27010KT 7SM OVC070 22/20 A2964 RMK AO2 RAE52 SLP036 P0001
                 T02170200 =
2018-06-19 04:56 METAR KHYA 190856Z AUTO 23007KT 7SM -RA FEW006 BKN075 OVC090 20/19 A2963 RMK AO2
                 RAB06E28B46 SLP034 P0001 60001 T02000194 56009 =
2018-06-19 03:56 METAR KHYA 190756Z AUTO 22012KT 7SM SCT005 BKN120 19/18 A2964 RMK AO2 RAB0658E10
                 SLP038 P0000 T01940183 =
2018-06-19 03:38 METAR KHYA 190738Z AUTO 23015G23KT 7SM SCT005 OVC120 19/18 A2964 RMK AO2
                 RAB0658E10 P0000 T01940183 =
2018-06-19 03:07 METAR KHYA 190707Z AUTO 22015KT 8SM -RA BKN006 BKN100 OVC120 19/18 A2964 RMK AO2
                 RAB0658 P0000 T01890183 =
2018-06-19 02:56 METAR KHYA 190656Z AUTO 23018G22KT 8SM SCT006 BKN100 OVC120 19/18 A2964 RMK AO2
                 PK WND 23027/0613 RAB10E51 SLP037 P0000 T01940183 =
2018-06-19 01:56 METAR KHYA 190556Z AUTO 23019G24KT 10SM FEW009 20/18 A2966 RMK AO2 SLP044 60005
                 T02000183 10211 20194 56020 =
2018-06-19 00:56 METAR KHYA 190456Z AUTO 22013KT 10SM FEW006 20/19 A2968 RMK AO2 PK WND
                 23026/0423 SLP052 T02000189 402560183 =
2018-06-19 00:46 METAR KHYA 190446Z AUTO 23015KT 9SM BKN005 20/19 A2968 RMK AO2 PK WND 23026/0423
                 T02000189 =
2018-06-19 00:14 METAR KHYA 190414Z AUTO 22019G26KT 10SM OVC004 19/19 A2970 RMK AO2 PK WND
                 23026/0409 T01940189 =
2018-06-18 23:56 METAR KHYA 190356Z AUTO 22017G24KT 9SM BKN006 BKN120 20/19 A2972 RMK AO2 PK WND
                 23031/0321 RAE40 SLP063 P0002 T02000189 =
2018-06-18 23:47 METAR KHYA 190347Z AUTO 23018G27KT 9SM SCT006 SCT110 20/19 A2971 RMK AO2 PK WND
                 23031/0321 RAE40 P0002 T02000189 =
2018-06-18 22:56 METAR KHYA 190256Z AUTO 23023G30KT 5SM RA BR SCT055 BKN080 BKN110 21/19 A2976
                 RMK AO2 PK WND 25034/0242 RAB11 SLP079 P0003 60003 T02060189 56014 =
2018-06-18 21:56 METAR KHYA 190156Z 21015G22KT 10SM CLR 21/19 A2978 RMK AO2 SLP085 T02110189 =
2018-06-18 20:56 METAR KHYA 190056Z 21014G21KT 9SM CLR 21/19 A2977 RMK AO2 SLP082 T02060189 =
2018-06-18 19:56 METAR KHYA 182356Z 22015KT 10SM CLR 21/19 A2980 RMK AO2 SLP093 T02110189 10244
                 20211 56013 =
2018-06-18 18:56 METAR KHYA 182256Z 21018G25KT 9SM CLR 22/19 A2981 RMK AO2 PK WND 21027/2232
                 SLP095 T02170189 =
2018-06-18 17:56 METAR KHYA 182156Z 20014G23KT 10SM CLR 23/19 A2981 RMK AO2 SLP096 T02280194 =
2018-06-18 16:56 METAR KHYA 182056Z 21019G24KT 10SM CLR 23/19 A2984 RMK AO2 SLP106 T02330194
                 56023 =
2018-06-18 15:56 METAR KHYA 181956Z 21016G26KT 10SM CLR 23/19 A2987 RMK AO2 PK WND 21027/1857
                 SLP115 T02280194 =

Support USWX by starting your Amazon purchase here.